sensor_id;sensor_type;location;lat;lon;timestamp;P1;durP1;ratioP1;P2;durP2;ratioP2
44120;SDS011;29783;52.504;13.478;2023-07-31T00:16:49;9.40;;;1.88;;
44120;SDS011;29783;52.504;13.478;2023-07-31T00:19:15;5.80;;;1.60;;
44120;SDS011;29783;52.504;13.478;2023-07-31T00:21:41;9.07;;;1.77;;
44120;SDS011;29783;52.504;13.478;2023-07-31T00:24:06;7.93;;;1.80;;
44120;SDS011;29783;52.504;13.478;2023-07-31T00:26:32;3.78;;;1.40;;
44120;SDS011;29783;52.504;13.478;2023-07-31T00:28:58;5.82;;;1.48;;
44120;SDS011;29783;52.504;13.478;2023-07-31T00:31:23;6.80;;;1.58;;
44120;SDS011;29783;52.504;13.478;2023-07-31T00:33:49;6.38;;;2.15;;
44120;SDS011;29783;52.504;13.478;2023-07-31T00:36:15;5.85;;;1.55;;
44120;SDS011;29783;52.504;13.478;2023-07-31T00:38:40;6.22;;;1.58;;
44120;SDS011;29783;52.504;13.478;2023-07-31T00:41:06;8.38;;;1.92;;
44120;SDS011;29783;52.504;13.478;2023-07-31T00:43:32;3.55;;;1.50;;
44120;SDS011;29783;52.504;13.478;2023-07-31T00:45:57;6.75;;;1.95;;
44120;SDS011;29783;52.504;13.478;2023-07-31T00:48:23;6.90;;;1.85;;
44120;SDS011;29783;52.504;13.478;2023-07-31T00:50:49;5.05;;;1.55;;
44120;SDS011;29783;52.504;13.478;2023-07-31T00:53:15;6.80;;;1.67;;
44120;SDS011;29783;52.504;13.478;2023-07-31T00:55:42;7.82;;;1.85;;
44120;SDS011;29783;52.504;13.478;2023-07-31T00:58:08;6.80;;;1.60;;
44120;SDS011;29783;52.504;13.478;2023-07-31T01:00:34;4.80;;;1.83;;
44120;SDS011;29783;52.504;13.478;2023-07-31T01:03:00;5.72;;;1.77;;
44120;SDS011;29783;52.504;13.478;2023-07-31T01:05:33;5.75;;;1.70;;
44120;SDS011;29783;52.504;13.478;2023-07-31T01:08:15;4.70;;;1.83;;
44120;SDS011;29783;52.504;13.478;2023-07-31T01:10:55;7.80;;;1.73;;
44120;SDS011;29783;52.504;13.478;2023-07-31T01:13:25;6.20;;;1.70;;
44120;SDS011;29783;52.504;13.478;2023-07-31T01:15:51;6.28;;;1.65;;
44120;SDS011;29783;52.504;13.478;2023-07-31T01:18:17;6.00;;;1.60;;
44120;SDS011;29783;52.504;13.478;2023-07-31T01:20:42;5.88;;;1.63;;
44120;SDS011;29783;52.504;13.478;2023-07-31T01:24:00;6.53;;;1.70;;
44120;SDS011;29783;52.504;13.478;2023-07-31T01:26:21;4.90;;;1.65;;
44120;SDS011;29783;52.504;13.478;2023-07-31T01:28:55;3.08;;;1.40;;
44120;SDS011;29783;52.504;13.478;2023-07-31T01:31:26;5.60;;;1.80;;
44120;SDS011;29783;52.504;13.478;2023-07-31T01:33:56;4.38;;;1.48;;
44120;SDS011;29783;52.504;13.478;2023-07-31T01:36:25;7.03;;;1.75;;
44120;SDS011;29783;52.504;13.478;2023-07-31T01:38:51;6.70;;;1.98;;
44120;SDS011;29783;52.504;13.478;2023-07-31T01:41:19;10.50;;;2.28;;
44120;SDS011;29783;52.504;13.478;2023-07-31T01:43:45;5.88;;;2.00;;
44120;SDS011;29783;52.504;13.478;2023-07-31T01:46:12;5.18;;;1.80;;
44120;SDS011;29783;52.504;13.478;2023-07-31T01:48:38;6.10;;;1.80;;
44120;SDS011;29783;52.504;13.478;2023-07-31T01:51:03;4.97;;;1.50;;
44120;SDS011;29783;52.504;13.478;2023-07-31T01:53:32;5.93;;;2.15;;
44120;SDS011;29783;52.504;13.478;2023-07-31T01:55:58;11.90;;;1.95;;
44120;SDS011;29783;52.504;13.478;2023-07-31T01:58:24;3.95;;;1.48;;
44120;SDS011;29783;52.504;13.478;2023-07-31T02:00:49;7.28;;;1.88;;
44120;SDS011;29783;52.504;13.478;2023-07-31T02:03:15;4.40;;;1.60;;
44120;SDS011;29783;52.504;13.478;2023-07-31T02:05:47;4.80;;;1.80;;
44120;SDS011;29783;52.504;13.478;2023-07-31T02:08:14;6.07;;;2.22;;
44120;SDS011;29783;52.504;13.478;2023-07-31T02:10:40;7.07;;;2.10;;
44120;SDS011;29783;52.504;13.478;2023-07-31T02:13:06;7.70;;;2.20;;
44120;SDS011;29783;52.504;13.478;2023-07-31T02:15:32;3.45;;;1.80;;
44120;SDS011;29783;52.504;13.478;2023-07-31T02:17:58;12.65;;;2.28;;
44120;SDS011;29783;52.504;13.478;2023-07-31T02:20:24;8.02;;;1.65;;
44120;SDS011;29783;52.504;13.478;2023-07-31T02:22:50;8.88;;;2.30;;
44120;SDS011;29783;52.504;13.478;2023-07-31T02:25:15;6.47;;;1.90;;
44120;SDS011;29783;52.504;13.478;2023-07-31T02:27:41;5.57;;;1.95;;
44120;SDS011;29783;52.504;13.478;2023-07-31T02:30:08;5.03;;;1.92;;
44120;SDS011;29783;52.504;13.478;2023-07-31T02:32:34;5.97;;;2.00;;
44120;SDS011;29783;52.504;13.478;2023-07-31T02:34:59;4.82;;;1.92;;
44120;SDS011;29783;52.504;13.478;2023-07-31T02:37:25;5.50;;;2.20;;
44120;SDS011;29783;52.504;13.478;2023-07-31T02:39:51;5.15;;;2.05;;
44120;SDS011;29783;52.504;13.478;2023-07-31T02:42:16;7.20;;;2.35;;
44120;SDS011;29783;52.504;13.478;2023-07-31T02:44:43;9.25;;;2.05;;
44120;SDS011;29783;52.504;13.478;2023-07-31T02:54:55;3.53;;;2.30;;
44120;SDS011;29783;52.504;13.478;2023-07-31T02:57:21;5.38;;;2.42;;
44120;SDS011;29783;52.504;13.478;2023-07-31T02:59:46;7.50;;;2.45;;
44120;SDS011;29783;52.504;13.478;2023-07-31T03:02:12;9.20;;;2.60;;
44120;SDS011;29783;52.504;13.478;2023-07-31T03:04:38;7.30;;;2.75;;
44120;SDS011;29783;52.504;13.478;2023-07-31T03:07:04;11.20;;;3.10;;
44120;SDS011;29783;52.504;13.478;2023-07-31T03:09:30;5.40;;;2.60;;
44120;SDS011;29783;52.504;13.478;2023-07-31T03:11:55;10.50;;;2.90;;
44120;SDS011;29783;52.504;13.478;2023-07-31T03:14:21;5.35;;;2.42;;
44120;SDS011;29783;52.504;13.478;2023-07-31T03:16:48;8.98;;;2.75;;
44120;SDS011;29783;52.504;13.478;2023-07-31T03:19:14;5.43;;;2.53;;
44120;SDS011;29783;52.504;13.478;2023-07-31T03:21:40;5.55;;;2.80;;
44120;SDS011;29783;52.504;13.478;2023-07-31T03:24:07;8.95;;;2.88;;
44120;SDS011;29783;52.504;13.478;2023-07-31T03:26:33;8.13;;;3.03;;
44120;SDS011;29783;52.504;13.478;2023-07-31T03:28:59;7.53;;;3.35;;
44120;SDS011;29783;52.504;13.478;2023-07-31T03:31:24;13.02;;;3.47;;
44120;SDS011;29783;52.504;13.478;2023-07-31T03:33:50;9.45;;;3.25;;
44120;SDS011;29783;52.504;13.478;2023-07-31T03:36:15;9.10;;;3.40;;
44120;SDS011;29783;52.504;13.478;2023-07-31T03:38:41;7.28;;;3.55;;
44120;SDS011;29783;52.504;13.478;2023-07-31T03:41:08;6.97;;;3.25;;
44120;SDS011;29783;52.504;13.478;2023-07-31T03:43:35;8.23;;;3.30;;
44120;SDS011;29783;52.504;13.478;2023-07-31T03:46:01;11.52;;;3.53;;
44120;SDS011;29783;52.504;13.478;2023-07-31T03:48:27;12.10;;;3.30;;
44120;SDS011;29783;52.504;13.478;2023-07-31T03:50:53;15.15;;;3.22;;
44120;SDS011;29783;52.504;13.478;2023-07-31T03:53:19;9.00;;;3.25;;
44120;SDS011;29783;52.504;13.478;2023-07-31T03:55:45;10.90;;;3.33;;
44120;SDS011;29783;52.504;13.478;2023-07-31T03:58:11;9.88;;;2.60;;
44120;SDS011;29783;52.504;13.478;2023-07-31T04:00:36;14.38;;;3.13;;
44120;SDS011;29783;52.504;13.478;2023-07-31T04:03:02;6.82;;;2.92;;
44120;SDS011;29783;52.504;13.478;2023-07-31T04:05:31;9.75;;;4.22;;
44120;SDS011;29783;52.504;13.478;2023-07-31T04:07:58;10.90;;;3.15;;
44120;SDS011;29783;52.504;13.478;2023-07-31T04:10:23;11.68;;;3.45;;
44120;SDS011;29783;52.504;13.478;2023-07-31T04:12:49;9.02;;;3.08;;
44120;SDS011;29783;52.504;13.478;2023-07-31T04:15:15;10.70;;;3.15;;
44120;SDS011;29783;52.504;13.478;2023-07-31T04:17:40;7.35;;;2.88;;
44120;SDS011;29783;52.504;13.478;2023-07-31T04:20:06;9.80;;;2.95;;
44120;SDS011;29783;52.504;13.478;2023-07-31T04:22:32;8.18;;;3.00;;
44120;SDS011;29783;52.504;13.478;2023-07-31T04:24:58;8.18;;;3.10;;
44120;SDS011;29783;52.504;13.478;2023-07-31T04:27:24;6.63;;;2.60;;
44120;SDS011;29783;52.504;13.478;2023-07-31T04:29:50;8.65;;;3.10;;
44120;SDS011;29783;52.504;13.478;2023-07-31T04:32:18;8.18;;;2.78;;
44120;SDS011;29783;52.504;13.478;2023-07-31T04:34:46;6.03;;;2.65;;
44120;SDS011;29783;52.504;13.478;2023-07-31T04:37:11;9.10;;;3.38;;
44120;SDS011;29783;52.504;13.478;2023-07-31T04:39:37;6.55;;;2.60;;
44120;SDS011;29783;52.504;13.478;2023-07-31T04:42:02;8.95;;;2.55;;
44120;SDS011;29783;52.504;13.478;2023-07-31T04:44:28;7.30;;;3.90;;
44120;SDS011;29783;52.504;13.478;2023-07-31T04:46:55;6.75;;;2.92;;
44120;SDS011;29783;52.504;13.478;2023-07-31T04:49:20;9.18;;;2.60;;
44120;SDS011;29783;52.504;13.478;2023-07-31T04:51:47;11.07;;;2.67;;
44120;SDS011;29783;52.504;13.478;2023-07-31T04:54:12;9.27;;;2.65;;
44120;SDS011;29783;52.504;13.478;2023-07-31T04:56:41;8.73;;;2.83;;
44120;SDS011;29783;52.504;13.478;2023-07-31T04:59:07;7.20;;;2.53;;
44120;SDS011;29783;52.504;13.478;2023-07-31T05:01:33;6.55;;;2.95;;
44120;SDS011;29783;52.504;13.478;2023-07-31T05:03:58;11.10;;;3.10;;
44120;SDS011;29783;52.504;13.478;2023-07-31T05:06:24;16.65;;;3.00;;
44120;SDS011;29783;52.504;13.478;2023-07-31T05:08:50;13.57;;;3.08;;
44120;SDS011;29783;52.504;13.478;2023-07-31T05:11:15;9.70;;;2.55;;
44120;SDS011;29783;52.504;13.478;2023-07-31T05:13:41;12.23;;;2.63;;
44120;SDS011;29783;52.504;13.478;2023-07-31T05:16:06;8.18;;;2.38;;
44120;SDS011;29783;52.504;13.478;2023-07-31T05:18:33;11.75;;;2.78;;
44120;SDS011;29783;52.504;13.478;2023-07-31T05:20:59;11.63;;;2.65;;
44120;SDS011;29783;52.504;13.478;2023-07-31T05:23:24;6.72;;;2.30;;
44120;SDS011;29783;52.504;13.478;2023-07-31T05:25:50;9.55;;;2.35;;
44120;SDS011;29783;52.504;13.478;2023-07-31T05:28:16;9.65;;;2.33;;
44120;SDS011;29783;52.504;13.478;2023-07-31T05:30:42;4.90;;;2.30;;
44120;SDS011;29783;52.504;13.478;2023-07-31T05:33:08;9.07;;;2.35;;
44120;SDS011;29783;52.504;13.478;2023-07-31T05:35:33;7.80;;;2.10;;
44120;SDS011;29783;52.504;13.478;2023-07-31T05:37:59;11.18;;;2.67;;
44120;SDS011;29783;52.504;13.478;2023-07-31T05:40:25;6.57;;;2.42;;
44120;SDS011;29783;52.504;13.478;2023-07-31T05:42:51;4.68;;;1.95;;
44120;SDS011;29783;52.504;13.478;2023-07-31T05:45:17;8.90;;;2.67;;
44120;SDS011;29783;52.504;13.478;2023-07-31T05:47:43;9.05;;;2.45;;
44120;SDS011;29783;52.504;13.478;2023-07-31T05:50:09;7.18;;;2.15;;
44120;SDS011;29783;52.504;13.478;2023-07-31T05:52:34;5.15;;;1.90;;
44120;SDS011;29783;52.504;13.478;2023-07-31T05:55:00;5.60;;;2.42;;
44120;SDS011;29783;52.504;13.478;2023-07-31T05:57:26;14.48;;;2.55;;
44120;SDS011;29783;52.504;13.478;2023-07-31T05:59:53;8.38;;;2.55;;
44120;SDS011;29783;52.504;13.478;2023-07-31T06:02:20;7.63;;;2.28;;
44120;SDS011;29783;52.504;13.478;2023-07-31T06:04:45;7.60;;;1.95;;
44120;SDS011;29783;52.504;13.478;2023-07-31T06:07:11;7.40;;;2.22;;
44120;SDS011;29783;52.504;13.478;2023-07-31T06:09:37;5.72;;;1.95;;
44120;SDS011;29783;52.504;13.478;2023-07-31T06:12:03;5.97;;;2.13;;
44120;SDS011;29783;52.504;13.478;2023-07-31T06:14:28;6.53;;;1.73;;
44120;SDS011;29783;52.504;13.478;2023-07-31T06:16:57;8.88;;;1.98;;
44120;SDS011;29783;52.504;13.478;2023-07-31T06:19:22;7.40;;;1.90;;
44120;SDS011;29783;52.504;13.478;2023-07-31T06:21:48;7.22;;;2.25;;
44120;SDS011;29783;52.504;13.478;2023-07-31T06:24:15;8.90;;;2.28;;
44120;SDS011;29783;52.504;13.478;2023-07-31T06:26:44;14.82;;;2.20;;
44120;SDS011;29783;52.504;13.478;2023-07-31T06:29:09;6.18;;;2.17;;
44120;SDS011;29783;52.504;13.478;2023-07-31T06:31:36;7.05;;;2.25;;
44120;SDS011;29783;52.504;13.478;2023-07-31T06:34:02;6.40;;;2.33;;
44120;SDS011;29783;52.504;13.478;2023-07-31T06:36:28;6.00;;;2.13;;
44120;SDS011;29783;52.504;13.478;2023-07-31T06:38:53;6.45;;;2.03;;
44120;SDS011;29783;52.504;13.478;2023-07-31T06:41:19;7.35;;;2.20;;
44120;SDS011;29783;52.504;13.478;2023-07-31T06:43:46;11.07;;;2.35;;
44120;SDS011;29783;52.504;13.478;2023-07-31T06:46:13;6.70;;;1.70;;
44120;SDS011;29783;52.504;13.478;2023-07-31T06:48:38;8.02;;;2.60;;
44120;SDS011;29783;52.504;13.478;2023-07-31T06:51:04;7.47;;;2.40;;
44120;SDS011;29783;52.504;13.478;2023-07-31T06:53:30;9.30;;;2.00;;
44120;SDS011;29783;52.504;13.478;2023-07-31T06:55:56;6.32;;;2.35;;
44120;SDS011;29783;52.504;13.478;2023-07-31T06:58:23;9.43;;;2.25;;
44120;SDS011;29783;52.504;13.478;2023-07-31T07:00:49;12.77;;;2.03;;
44120;SDS011;29783;52.504;13.478;2023-07-31T07:03:17;8.45;;;2.53;;
44120;SDS011;29783;52.504;13.478;2023-07-31T07:05:44;5.80;;;2.10;;
44120;SDS011;29783;52.504;13.478;2023-07-31T07:08:09;8.10;;;1.90;;
44120;SDS011;29783;52.504;13.478;2023-07-31T07:10:35;6.70;;;2.10;;
44120;SDS011;29783;52.504;13.478;2023-07-31T07:13:01;7.18;;;2.20;;
44120;SDS011;29783;52.504;13.478;2023-07-31T07:15:28;8.85;;;2.13;;
44120;SDS011;29783;52.504;13.478;2023-07-31T07:17:54;6.68;;;2.13;;
44120;SDS011;29783;52.504;13.478;2023-07-31T07:20:19;4.13;;;2.00;;
44120;SDS011;29783;52.504;13.478;2023-07-31T07:22:45;7.25;;;2.30;;
44120;SDS011;29783;52.504;13.478;2023-07-31T07:25:11;6.47;;;2.03;;
44120;SDS011;29783;52.504;13.478;2023-07-31T07:27:36;7.45;;;2.45;;
44120;SDS011;29783;52.504;13.478;2023-07-31T07:30:02;9.75;;;2.35;;
44120;SDS011;29783;52.504;13.478;2023-07-31T07:32:29;5.55;;;2.22;;
44120;SDS011;29783;52.504;13.478;2023-07-31T07:34:55;5.50;;;2.10;;
44120;SDS011;29783;52.504;13.478;2023-07-31T07:37:21;7.03;;;2.13;;
44120;SDS011;29783;52.504;13.478;2023-07-31T07:39:48;7.15;;;2.20;;
44120;SDS011;29783;52.504;13.478;2023-07-31T07:42:14;6.85;;;2.20;;
44120;SDS011;29783;52.504;13.478;2023-07-31T07:44:39;5.38;;;2.40;;
44120;SDS011;29783;52.504;13.478;2023-07-31T07:47:05;7.22;;;2.45;;
44120;SDS011;29783;52.504;13.478;2023-07-31T08:05:35;7.35;;;2.03;;
44120;SDS011;29783;52.504;13.478;2023-07-31T08:08:03;12.85;;;2.25;;
44120;SDS011;29783;52.504;13.478;2023-07-31T08:10:30;6.60;;;2.28;;
44120;SDS011;29783;52.504;13.478;2023-07-31T08:12:57;5.28;;;2.13;;
44120;SDS011;29783;52.504;13.478;2023-07-31T08:15:23;3.45;;;1.48;;
44120;SDS011;29783;52.504;13.478;2023-07-31T08:17:48;5.88;;;1.48;;
44120;SDS011;29783;52.504;13.478;2023-07-31T08:20:14;7.28;;;1.70;;
44120;SDS011;29783;52.504;13.478;2023-07-31T08:22:40;3.80;;;1.48;;
44120;SDS011;29783;52.504;13.478;2023-07-31T08:25:07;3.75;;;1.50;;
44120;SDS011;29783;52.504;13.478;2023-07-31T08:27:33;3.58;;;1.50;;
44120;SDS011;29783;52.504;13.478;2023-07-31T08:29:59;10.93;;;1.50;;
44120;SDS011;29783;52.504;13.478;2023-07-31T08:32:24;3.30;;;1.33;;
44120;SDS011;29783;52.504;13.478;2023-07-31T08:34:51;2.90;;;1.55;;
44120;SDS011;29783;52.504;13.478;2023-07-31T08:37:18;3.95;;;1.50;;
44120;SDS011;29783;52.504;13.478;2023-07-31T08:39:43;3.92;;;1.38;;
44120;SDS011;29783;52.504;13.478;2023-07-31T08:42:09;2.83;;;1.45;;
44120;SDS011;29783;52.504;13.478;2023-07-31T08:44:35;5.70;;;1.90;;
44120;SDS011;29783;52.504;13.478;2023-07-31T08:47:02;3.78;;;1.73;;
44120;SDS011;29783;52.504;13.478;2023-07-31T08:49:30;2.67;;;1.55;;
44120;SDS011;29783;52.504;13.478;2023-07-31T08:51:56;6.13;;;1.58;;
44120;SDS011;29783;52.504;13.478;2023-07-31T08:54:23;3.20;;;1.48;;
44120;SDS011;29783;52.504;13.478;2023-07-31T08:56:51;7.63;;;1.77;;
44120;SDS011;29783;52.504;13.478;2023-07-31T08:59:18;4.35;;;1.52;;
44120;SDS011;29783;52.504;13.478;2023-07-31T09:01:47;3.08;;;1.60;;
44120;SDS011;29783;52.504;13.478;2023-07-31T09:04:18;4.70;;;1.38;;
44120;SDS011;29783;52.504;13.478;2023-07-31T09:06:45;3.15;;;1.65;;
44120;SDS011;29783;52.504;13.478;2023-07-31T09:09:13;3.97;;;1.60;;
44120;SDS011;29783;52.504;13.478;2023-07-31T09:11:39;2.58;;;1.25;;
44120;SDS011;29783;52.504;13.478;2023-07-31T09:14:05;4.75;;;1.67;;
44120;SDS011;29783;52.504;13.478;2023-07-31T09:16:34;3.08;;;1.30;;
44120;SDS011;29783;52.504;13.478;2023-07-31T09:19:01;3.50;;;1.60;;
44120;SDS011;29783;52.504;13.478;2023-07-31T09:21:28;7.57;;;1.42;;
44120;SDS011;29783;52.504;13.478;2023-07-31T09:23:54;8.75;;;1.25;;
44120;SDS011;29783;52.504;13.478;2023-07-31T09:28:57;3.05;;;1.38;;
44120;SDS011;29783;52.504;13.478;2023-07-31T09:34:19;2.03;;;1.08;;
44120;SDS011;29783;52.504;13.478;2023-07-31T09:36:46;1.30;;;0.77;;
44120;SDS011;29783;52.504;13.478;2023-07-31T09:39:13;2.22;;;1.00;;
44120;SDS011;29783;52.504;13.478;2023-07-31T09:41:45;3.22;;;0.80;;
44120;SDS011;29783;52.504;13.478;2023-07-31T09:44:20;1.67;;;1.00;;
44120;SDS011;29783;52.504;13.478;2023-07-31T09:46:46;5.20;;;0.93;;
44120;SDS011;29783;52.504;13.478;2023-07-31T09:49:13;2.20;;;0.93;;
44120;SDS011;29783;52.504;13.478;2023-07-31T09:51:41;2.53;;;0.90;;
44120;SDS011;29783;52.504;13.478;2023-07-31T09:54:14;5.13;;;1.60;;
44120;SDS011;29783;52.504;13.478;2023-07-31T09:56:42;1.92;;;0.80;;
44120;SDS011;29783;52.504;13.478;2023-07-31T09:59:10;3.63;;;1.02;;
44120;SDS011;29783;52.504;13.478;2023-07-31T10:01:40;1.70;;;0.70;;
44120;SDS011;29783;52.504;13.478;2023-07-31T10:04:08;6.45;;;1.17;;
44120;SDS011;29783;52.504;13.478;2023-07-31T10:06:35;1.58;;;0.80;;
44120;SDS011;29783;52.504;13.478;2023-07-31T10:09:02;4.22;;;1.10;;
44120;SDS011;29783;52.504;13.478;2023-07-31T10:11:30;3.28;;;1.30;;
44120;SDS011;29783;52.504;13.478;2023-07-31T10:14:03;4.00;;;1.58;;
44120;SDS011;29783;52.504;13.478;2023-07-31T10:16:31;2.45;;;1.10;;
44120;SDS011;29783;52.504;13.478;2023-07-31T10:18:57;3.70;;;1.40;;
44120;SDS011;29783;52.504;13.478;2023-07-31T10:21:24;6.25;;;1.90;;
44120;SDS011;29783;52.504;13.478;2023-07-31T10:23:50;8.15;;;1.80;;
44120;SDS011;29783;52.504;13.478;2023-07-31T10:26:17;7.30;;;2.28;;
44120;SDS011;29783;52.504;13.478;2023-07-31T10:28:45;6.13;;;2.25;;
44120;SDS011;29783;52.504;13.478;2023-07-31T10:31:13;15.48;;;2.40;;
44120;SDS011;29783;52.504;13.478;2023-07-31T10:33:40;9.38;;;2.50;;
44120;SDS011;29783;52.504;13.478;2023-07-31T10:36:18;4.35;;;2.20;;
44120;SDS011;29783;52.504;13.478;2023-07-31T10:38:48;7.70;;;2.85;;
44120;SDS011;29783;52.504;13.478;2023-07-31T10:41:15;10.85;;;2.75;;
44120;SDS011;29783;52.504;13.478;2023-07-31T10:43:42;6.03;;;2.38;;
44120;SDS011;29783;52.504;13.478;2023-07-31T10:46:11;5.65;;;2.47;;
44120;SDS011;29783;52.504;13.478;2023-07-31T10:48:39;7.55;;;2.80;;
44120;SDS011;29783;52.504;13.478;2023-07-31T10:51:12;10.57;;;3.03;;
44120;SDS011;29783;52.504;13.478;2023-07-31T10:53:39;10.32;;;2.90;;
44120;SDS011;29783;52.504;13.478;2023-07-31T10:56:07;14.02;;;2.58;;
44120;SDS011;29783;52.504;13.478;2023-07-31T10:58:34;7.35;;;2.65;;
44120;SDS011;29783;52.504;13.478;2023-07-31T11:01:02;4.78;;;2.25;;
44120;SDS011;29783;52.504;13.478;2023-07-31T11:03:43;7.30;;;2.47;;
44120;SDS011;29783;52.504;13.478;2023-07-31T11:06:11;6.40;;;2.65;;
44120;SDS011;29783;52.504;13.478;2023-07-31T11:08:47;10.38;;;2.67;;
44120;SDS011;29783;52.504;13.478;2023-07-31T11:11:16;6.72;;;2.90;;
44120;SDS011;29783;52.504;13.478;2023-07-31T11:13:46;6.50;;;2.63;;
44120;SDS011;29783;52.504;13.478;2023-07-31T11:16:19;6.22;;;2.58;;
44120;SDS011;29783;52.504;13.478;2023-07-31T11:18:46;7.88;;;2.58;;
44120;SDS011;29783;52.504;13.478;2023-07-31T11:21:14;9.02;;;2.65;;
44120;SDS011;29783;52.504;13.478;2023-07-31T11:23:41;6.22;;;2.78;;
44120;SDS011;29783;52.504;13.478;2023-07-31T11:26:10;5.35;;;2.58;;
44120;SDS011;29783;52.504;13.478;2023-07-31T11:28:36;5.30;;;2.30;;
44120;SDS011;29783;52.504;13.478;2023-07-31T11:31:03;4.60;;;2.30;;
44120;SDS011;29783;52.504;13.478;2023-07-31T11:33:29;5.80;;;2.38;;
44120;SDS011;29783;52.504;13.478;2023-07-31T11:35:55;8.57;;;2.53;;
44120;SDS011;29783;52.504;13.478;2023-07-31T11:40:49;7.45;;;2.53;;
44120;SDS011;29783;52.504;13.478;2023-07-31T11:43:15;6.53;;;2.35;;
44120;SDS011;29783;52.504;13.478;2023-07-31T11:45:45;3.75;;;1.88;;
44120;SDS011;29783;52.504;13.478;2023-07-31T12:23:30;7.25;;;2.55;;
44120;SDS011;29783;52.504;13.478;2023-07-31T12:26:02;4.18;;;2.22;;
44120;SDS011;29783;52.504;13.478;2023-07-31T12:28:29;7.13;;;2.42;;
44120;SDS011;29783;52.504;13.478;2023-07-31T12:30:58;5.65;;;2.00;;
44120;SDS011;29783;52.504;13.478;2023-07-31T12:33:30;3.85;;;1.95;;
44120;SDS011;29783;52.504;13.478;2023-07-31T12:36:00;7.03;;;2.30;;
44120;SDS011;29783;52.504;13.478;2023-07-31T12:38:29;5.65;;;2.25;;
44120;SDS011;29783;52.504;13.478;2023-07-31T12:40:55;6.10;;;2.50;;
44120;SDS011;29783;52.504;13.478;2023-07-31T12:43:21;8.27;;;2.22;;
44120;SDS011;29783;52.504;13.478;2023-07-31T12:45:47;7.10;;;2.53;;
44120;SDS011;29783;52.504;13.478;2023-07-31T13:08:27;5.45;;;1.50;;
44120;SDS011;29783;52.504;13.478;2023-07-31T13:10:54;7.75;;;1.90;;
44120;SDS011;29783;52.504;13.478;2023-07-31T13:13:21;9.95;;;1.83;;
44120;SDS011;29783;52.504;13.478;2023-07-31T13:15:47;4.90;;;1.48;;
44120;SDS011;29783;52.504;13.478;2023-07-31T13:18:12;4.90;;;1.63;;
44120;SDS011;29783;52.504;13.478;2023-07-31T13:20:38;3.30;;;1.80;;
44120;SDS011;29783;52.504;13.478;2023-07-31T13:23:04;5.13;;;1.63;;
44120;SDS011;29783;52.504;13.478;2023-07-31T13:25:30;6.65;;;1.92;;
44120;SDS011;29783;52.504;13.478;2023-07-31T13:27:56;7.22;;;1.88;;
44120;SDS011;29783;52.504;13.478;2023-07-31T13:30:21;5.22;;;1.80;;
44120;SDS011;29783;52.504;13.478;2023-07-31T13:32:47;5.00;;;1.80;;
44120;SDS011;29783;52.504;13.478;2023-07-31T13:35:13;8.18;;;2.10;;
44120;SDS011;29783;52.504;13.478;2023-07-31T13:37:38;5.53;;;1.95;;
44120;SDS011;29783;52.504;13.478;2023-07-31T13:40:04;11.55;;;2.22;;
44120;SDS011;29783;52.504;13.478;2023-07-31T13:42:31;10.77;;;2.17;;
44120;SDS011;29783;52.504;13.478;2023-07-31T13:44:59;5.55;;;2.20;;
44120;SDS011;29783;52.504;13.478;2023-07-31T13:56:32;5.40;;;2.15;;
44120;SDS011;29783;52.504;13.478;2023-07-31T13:58:57;8.77;;;2.10;;
44120;SDS011;29783;52.504;13.478;2023-07-31T14:01:23;6.93;;;2.10;;
44120;SDS011;29783;52.504;13.478;2023-07-31T14:03:49;15.55;;;2.85;;
44120;SDS011;29783;52.504;13.478;2023-07-31T14:06:16;8.10;;;2.53;;
44120;SDS011;29783;52.504;13.478;2023-07-31T14:08:41;4.95;;;2.30;;
44120;SDS011;29783;52.504;13.478;2023-07-31T14:11:07;6.10;;;2.22;;
44120;SDS011;29783;52.504;13.478;2023-07-31T14:13:33;5.85;;;2.45;;
44120;SDS011;29783;52.504;13.478;2023-07-31T14:15:58;5.82;;;2.35;;
44120;SDS011;29783;52.504;13.478;2023-07-31T14:18:24;6.10;;;2.63;;
44120;SDS011;29783;52.504;13.478;2023-07-31T14:20:50;8.05;;;2.55;;
44120;SDS011;29783;52.504;13.478;2023-07-31T14:23:17;4.35;;;2.20;;
44120;SDS011;29783;52.504;13.478;2023-07-31T14:25:44;10.25;;;3.25;;
44120;SDS011;29783;52.504;13.478;2023-07-31T14:28:11;17.08;;;3.13;;
44120;SDS011;29783;52.504;13.478;2023-07-31T14:30:36;6.93;;;2.42;;
44120;SDS011;29783;52.504;13.478;2023-07-31T14:33:02;5.03;;;2.15;;
44120;SDS011;29783;52.504;13.478;2023-07-31T14:35:30;7.25;;;2.75;;
44120;SDS011;29783;52.504;13.478;2023-07-31T14:37:56;7.22;;;2.80;;
44120;SDS011;29783;52.504;13.478;2023-07-31T14:40:22;4.00;;;2.22;;
44120;SDS011;29783;52.504;13.478;2023-07-31T14:42:47;4.43;;;2.45;;
44120;SDS011;29783;52.504;13.478;2023-07-31T14:45:13;4.70;;;2.58;;
44120;SDS011;29783;52.504;13.478;2023-07-31T15:07:09;4.55;;;2.58;;
44120;SDS011;29783;52.504;13.478;2023-07-31T15:09:35;7.72;;;2.47;;
44120;SDS011;29783;52.504;13.478;2023-07-31T15:12:01;4.93;;;2.67;;
44120;SDS011;29783;52.504;13.478;2023-07-31T15:14:27;5.97;;;2.60;;
44120;SDS011;29783;52.504;13.478;2023-07-31T15:16:54;5.68;;;2.50;;
44120;SDS011;29783;52.504;13.478;2023-07-31T15:19:22;9.07;;;2.80;;
44120;SDS011;29783;52.504;13.478;2023-07-31T15:21:48;6.63;;;2.65;;
44120;SDS011;29783;52.504;13.478;2023-07-31T15:24:16;6.60;;;2.05;;
44120;SDS011;29783;52.504;13.478;2023-07-31T15:26:43;10.07;;;3.03;;
44120;SDS011;29783;52.504;13.478;2023-07-31T15:29:09;5.75;;;2.65;;
44120;SDS011;29783;52.504;13.478;2023-07-31T15:31:39;4.97;;;2.95;;
44120;SDS011;29783;52.504;13.478;2023-07-31T15:34:06;6.82;;;2.70;;
44120;SDS011;29783;52.504;13.478;2023-07-31T15:36:32;7.18;;;3.15;;
44120;SDS011;29783;52.504;13.478;2023-07-31T15:38:58;6.32;;;2.65;;
44120;SDS011;29783;52.504;13.478;2023-07-31T15:41:26;4.65;;;2.60;;
44120;SDS011;29783;52.504;13.478;2023-07-31T15:43:54;6.80;;;2.60;;
44120;SDS011;29783;52.504;13.478;2023-07-31T15:46:20;5.53;;;2.80;;
44120;SDS011;29783;52.504;13.478;2023-07-31T16:18:25;7.47;;;3.58;;
44120;SDS011;29783;52.504;13.478;2023-07-31T16:20:51;7.15;;;3.30;;
44120;SDS011;29783;52.504;13.478;2023-07-31T16:23:17;5.40;;;3.08;;
44120;SDS011;29783;52.504;13.478;2023-07-31T16:25:43;9.15;;;3.53;;
44120;SDS011;29783;52.504;13.478;2023-07-31T16:28:08;6.93;;;3.00;;
44120;SDS011;29783;52.504;13.478;2023-07-31T16:30:35;6.03;;;3.20;;
44120;SDS011;29783;52.504;13.478;2023-07-31T16:33:08;9.73;;;3.20;;
44120;SDS011;29783;52.504;13.478;2023-07-31T16:35:40;10.60;;;3.13;;
44120;SDS011;29783;52.504;13.478;2023-07-31T16:38:06;8.65;;;3.35;;
44120;SDS011;29783;52.504;13.478;2023-07-31T16:40:31;9.90;;;3.63;;
44120;SDS011;29783;52.504;13.478;2023-07-31T16:42:58;5.68;;;2.88;;
44120;SDS011;29783;52.504;13.478;2023-07-31T16:45:24;4.20;;;2.40;;
44120;SDS011;29783;52.504;13.478;2023-07-31T16:47:50;8.60;;;2.63;;
44120;SDS011;29783;52.504;13.478;2023-07-31T16:50:15;7.18;;;2.25;;
44120;SDS011;29783;52.504;13.478;2023-07-31T16:52:45;7.35;;;2.47;;
44120;SDS011;29783;52.504;13.478;2023-07-31T16:55:15;2.30;;;1.98;;
44120;SDS011;29783;52.504;13.478;2023-07-31T16:57:42;5.80;;;2.40;;
44120;SDS011;29783;52.504;13.478;2023-07-31T17:00:09;7.32;;;2.67;;
44120;SDS011;29783;52.504;13.478;2023-07-31T17:02:35;8.13;;;2.35;;
44120;SDS011;29783;52.504;13.478;2023-07-31T17:05:01;6.20;;;2.38;;
44120;SDS011;29783;52.504;13.478;2023-07-31T17:07:27;5.13;;;1.98;;
44120;SDS011;29783;52.504;13.478;2023-07-31T17:09:52;6.18;;;2.38;;
44120;SDS011;29783;52.504;13.478;2023-07-31T17:12:20;4.68;;;2.47;;